OIBL  Bandar Lengeh Airport

Add Bookmark

Bandar Lengeh, Iran

Status IATA
Operational BDH
Latitude Longitude
26° 31' 55" N 54° 49' 29" E
26.532000 54.824799
Local (DST + 5) UTC (GMT + 4)
Nov 1, 2014 01:34 Nov 1, 2014 10:04
Sunrise-Sunset Local UTC
Begin Civil Twilight 05:35 02:05
Sunrise 05:58 02:28
Sunset 05:09 13:39
End Civil Twilight 05:33 14:03

Current Weather

METAR Observed MVFR
OIBL 010900Z 09008KT 7000 FEW030TCU SCT100 31/24 Q1012 Sat, Nov 1, 2014 @ 09:00 UTC
(1 Hour, 4 Minutes ago)
Marginal Visual Flight Rules
Wind Visibility Clouds Conditions
090° at 8 knots (15 kph) 7000 meters
  • Few at 3,000' AGL
  • Scattered at 10,000' AGL
  • No significant weather
Temperatures Readings Precipitation
Current Temp 31°C (88°F)
Dewpoint 24°C (75°F)
Heat Index 37°C (98°F)
Humidity 66%
Altimeter 29.88"Hg
Sea Level Pressure 1012mb
Field Elevation 45.93'
None Recorded

Additional weather within a 92.6km radius of OIBL

Map ICAO Location
OIBS 74.8km S (202°)
OIBA 75.7km S (164°)
OIBK 83.9km W (270°)

24 Hour Weather History

Loading
-

24 Hour Weather Graphs

Loading
-

CheckWX.com is intended as a tool to help pilots better visualize weather data. It is not intended as a substitute for an official weather briefing obtained from a Flight Service Station. CheckWX.com does not meet the FAA requirements for an official pre-flight weather briefing. Therefore, it's important that pilots still call and obtain an official FSS pre-flight weather briefing.